sensor_id;sensor_type;location;lat;lon;timestamp;P1;durP1;ratioP1;P2;durP2;ratioP2
15317;SDS011;7759;52.528;13.346;2023-12-07T00:01:54;12.50;;;7.07;;
15317;SDS011;7759;52.528;13.346;2023-12-07T00:04:20;10.83;;;6.40;;
15317;SDS011;7759;52.528;13.346;2023-12-07T00:06:46;13.13;;;7.00;;
15317;SDS011;7759;52.528;13.346;2023-12-07T00:09:12;12.20;;;6.87;;
15317;SDS011;7759;52.528;13.346;2023-12-07T00:11:37;9.97;;;5.57;;
15317;SDS011;7759;52.528;13.346;2023-12-07T00:14:03;11.40;;;6.93;;
15317;SDS011;7759;52.528;13.346;2023-12-07T00:16:29;11.30;;;6.43;;
15317;SDS011;7759;52.528;13.346;2023-12-07T00:18:55;14.23;;;7.47;;
15317;SDS011;7759;52.528;13.346;2023-12-07T00:21:21;11.40;;;6.27;;
15317;SDS011;7759;52.528;13.346;2023-12-07T00:23:47;9.87;;;6.00;;
15317;SDS011;7759;52.528;13.346;2023-12-07T00:26:13;10.70;;;6.13;;
15317;SDS011;7759;52.528;13.346;2023-12-07T00:28:39;11.10;;;6.60;;
15317;SDS011;7759;52.528;13.346;2023-12-07T00:31:05;10.70;;;6.53;;
15317;SDS011;7759;52.528;13.346;2023-12-07T00:33:31;12.10;;;7.50;;
15317;SDS011;7759;52.528;13.346;2023-12-07T00:35:57;11.87;;;6.90;;
15317;SDS011;7759;52.528;13.346;2023-12-07T00:38:23;15.40;;;7.10;;
15317;SDS011;7759;52.528;13.346;2023-12-07T00:40:49;11.10;;;6.37;;
15317;SDS011;7759;52.528;13.346;2023-12-07T00:43:14;11.83;;;6.87;;
15317;SDS011;7759;52.528;13.346;2023-12-07T00:45:42;11.23;;;6.57;;
15317;SDS011;7759;52.528;13.346;2023-12-07T00:48:08;9.97;;;6.33;;
15317;SDS011;7759;52.528;13.346;2023-12-07T00:50:33;11.00;;;6.83;;
15317;SDS011;7759;52.528;13.346;2023-12-07T00:52:59;10.30;;;6.03;;
15317;SDS011;7759;52.528;13.346;2023-12-07T00:55:25;16.23;;;8.40;;
15317;SDS011;7759;52.528;13.346;2023-12-07T00:57:51;11.60;;;6.97;;
15317;SDS011;7759;52.528;13.346;2023-12-07T01:00:17;13.40;;;7.17;;
15317;SDS011;7759;52.528;13.346;2023-12-07T01:02:43;11.87;;;7.23;;
15317;SDS011;7759;52.528;13.346;2023-12-07T01:05:09;12.37;;;7.20;;
15317;SDS011;7759;52.528;13.346;2023-12-07T01:07:35;10.17;;;5.97;;
15317;SDS011;7759;52.528;13.346;2023-12-07T01:10:01;14.93;;;7.30;;
15317;SDS011;7759;52.528;13.346;2023-12-07T01:12:27;11.90;;;6.77;;
15317;SDS011;7759;52.528;13.346;2023-12-07T01:14:53;11.17;;;6.33;;
15317;SDS011;7759;52.528;13.346;2023-12-07T01:17:19;10.10;;;5.77;;
15317;SDS011;7759;52.528;13.346;2023-12-07T01:19:45;9.00;;;6.00;;
15317;SDS011;7759;52.528;13.346;2023-12-07T01:22:11;14.93;;;8.23;;
15317;SDS011;7759;52.528;13.346;2023-12-07T01:24:37;11.33;;;7.37;;
15317;SDS011;7759;52.528;13.346;2023-12-07T01:27:03;12.37;;;7.03;;
15317;SDS011;7759;52.528;13.346;2023-12-07T01:29:28;11.20;;;6.60;;
15317;SDS011;7759;52.528;13.346;2023-12-07T01:31:54;10.00;;;6.37;;
15317;SDS011;7759;52.528;13.346;2023-12-07T01:34:21;12.17;;;6.60;;
15317;SDS011;7759;52.528;13.346;2023-12-07T01:36:47;9.47;;;5.43;;
15317;SDS011;7759;52.528;13.346;2023-12-07T01:39:13;13.37;;;7.63;;
15317;SDS011;7759;52.528;13.346;2023-12-07T01:41:40;13.60;;;7.40;;
15317;SDS011;7759;52.528;13.346;2023-12-07T01:44:06;12.17;;;7.03;;
15317;SDS011;7759;52.528;13.346;2023-12-07T01:46:32;12.07;;;6.50;;
15317;SDS011;7759;52.528;13.346;2023-12-07T01:48:58;11.30;;;6.33;;
15317;SDS011;7759;52.528;13.346;2023-12-07T01:51:25;12.50;;;7.10;;
15317;SDS011;7759;52.528;13.346;2023-12-07T01:53:51;12.73;;;6.93;;
15317;SDS011;7759;52.528;13.346;2023-12-07T01:56:17;10.80;;;5.83;;
15317;SDS011;7759;52.528;13.346;2023-12-07T01:58:43;11.00;;;6.20;;
15317;SDS011;7759;52.528;13.346;2023-12-07T02:01:09;10.07;;;6.23;;
15317;SDS011;7759;52.528;13.346;2023-12-07T02:03:39;10.27;;;6.30;;
15317;SDS011;7759;52.528;13.346;2023-12-07T02:06:06;12.33;;;6.23;;
15317;SDS011;7759;52.528;13.346;2023-12-07T02:08:33;9.03;;;5.63;;
15317;SDS011;7759;52.528;13.346;2023-12-07T02:10:59;12.00;;;7.33;;
15317;SDS011;7759;52.528;13.346;2023-12-07T02:13:25;13.50;;;7.43;;
15317;SDS011;7759;52.528;13.346;2023-12-07T02:15:52;10.30;;;6.67;;
15317;SDS011;7759;52.528;13.346;2023-12-07T02:18:25;10.53;;;6.30;;
15317;SDS011;7759;52.528;13.346;2023-12-07T02:23:19;11.90;;;6.73;;
15317;SDS011;7759;52.528;13.346;2023-12-07T02:25:53;12.57;;;6.57;;
15317;SDS011;7759;52.528;13.346;2023-12-07T02:28:19;13.67;;;7.50;;
15317;SDS011;7759;52.528;13.346;2023-12-07T02:30:46;12.60;;;7.47;;
15317;SDS011;7759;52.528;13.346;2023-12-07T02:33:12;10.97;;;6.70;;
15317;SDS011;7759;52.528;13.346;2023-12-07T02:35:38;9.07;;;6.23;;
15317;SDS011;7759;52.528;13.346;2023-12-07T02:38:05;10.97;;;5.83;;
15317;SDS011;7759;52.528;13.346;2023-12-07T02:40:31;11.00;;;5.67;;
15317;SDS011;7759;52.528;13.346;2023-12-07T02:42:57;11.23;;;6.57;;
15317;SDS011;7759;52.528;13.346;2023-12-07T02:45:24;9.07;;;6.07;;
15317;SDS011;7759;52.528;13.346;2023-12-07T02:47:50;9.10;;;5.93;;
15317;SDS011;7759;52.528;13.346;2023-12-07T02:50:16;9.53;;;5.90;;
15317;SDS011;7759;52.528;13.346;2023-12-07T02:52:42;15.37;;;6.80;;
15317;SDS011;7759;52.528;13.346;2023-12-07T02:55:08;11.00;;;6.13;;
15317;SDS011;7759;52.528;13.346;2023-12-07T02:57:34;9.13;;;5.80;;
15317;SDS011;7759;52.528;13.346;2023-12-07T03:00:01;10.67;;;6.30;;
15317;SDS011;7759;52.528;13.346;2023-12-07T03:02:31;9.60;;;6.07;;
15317;SDS011;7759;52.528;13.346;2023-12-07T03:04:57;10.83;;;6.73;;
15317;SDS011;7759;52.528;13.346;2023-12-07T03:07:22;10.57;;;6.10;;
15317;SDS011;7759;52.528;13.346;2023-12-07T03:09:48;11.60;;;6.27;;
15317;SDS011;7759;52.528;13.346;2023-12-07T03:12:14;9.33;;;5.40;;
15317;SDS011;7759;52.528;13.346;2023-12-07T03:14:40;12.47;;;6.27;;
15317;SDS011;7759;52.528;13.346;2023-12-07T03:17:06;8.43;;;5.63;;
15317;SDS011;7759;52.528;13.346;2023-12-07T03:19:32;12.47;;;6.50;;
15317;SDS011;7759;52.528;13.346;2023-12-07T03:21:58;12.27;;;7.23;;
15317;SDS011;7759;52.528;13.346;2023-12-07T03:24:24;10.43;;;6.40;;
15317;SDS011;7759;52.528;13.346;2023-12-07T03:26:50;9.73;;;5.93;;
15317;SDS011;7759;52.528;13.346;2023-12-07T03:29:16;10.63;;;5.83;;
15317;SDS011;7759;52.528;13.346;2023-12-07T03:31:42;9.33;;;5.40;;
15317;SDS011;7759;52.528;13.346;2023-12-07T03:34:07;12.20;;;5.83;;
15317;SDS011;7759;52.528;13.346;2023-12-07T03:36:33;13.43;;;7.17;;
15317;SDS011;7759;52.528;13.346;2023-12-07T03:38:59;13.27;;;7.30;;
15317;SDS011;7759;52.528;13.346;2023-12-07T03:41:25;15.50;;;6.33;;
15317;SDS011;7759;52.528;13.346;2023-12-07T03:43:51;10.40;;;6.30;;
15317;SDS011;7759;52.528;13.346;2023-12-07T03:46:17;11.23;;;6.80;;
15317;SDS011;7759;52.528;13.346;2023-12-07T03:48:43;13.37;;;7.50;;
15317;SDS011;7759;52.528;13.346;2023-12-07T03:51:12;13.07;;;7.33;;
15317;SDS011;7759;52.528;13.346;2023-12-07T03:53:37;11.20;;;6.70;;
15317;SDS011;7759;52.528;13.346;2023-12-07T03:56:03;12.37;;;7.27;;
15317;SDS011;7759;52.528;13.346;2023-12-07T03:58:29;14.17;;;7.73;;
15317;SDS011;7759;52.528;13.346;2023-12-07T04:00:55;13.30;;;7.73;;
15317;SDS011;7759;52.528;13.346;2023-12-07T04:03:22;10.80;;;6.40;;
15317;SDS011;7759;52.528;13.346;2023-12-07T04:05:48;15.57;;;7.40;;
15317;SDS011;7759;52.528;13.346;2023-12-07T04:08:14;15.43;;;7.70;;
15317;SDS011;7759;52.528;13.346;2023-12-07T04:10:40;14.67;;;7.47;;
15317;SDS011;7759;52.528;13.346;2023-12-07T04:13:06;13.33;;;7.80;;
15317;SDS011;7759;52.528;13.346;2023-12-07T04:15:32;13.70;;;7.43;;
15317;SDS011;7759;52.528;13.346;2023-12-07T04:17:57;13.87;;;7.23;;
15317;SDS011;7759;52.528;13.346;2023-12-07T04:20:23;15.10;;;7.80;;
15317;SDS011;7759;52.528;13.346;2023-12-07T04:22:49;13.27;;;6.83;;
15317;SDS011;7759;52.528;13.346;2023-12-07T04:25:15;12.87;;;6.43;;
15317;SDS011;7759;52.528;13.346;2023-12-07T04:27:41;13.90;;;7.27;;
15317;SDS011;7759;52.528;13.346;2023-12-07T04:30:07;15.10;;;8.10;;
15317;SDS011;7759;52.528;13.346;2023-12-07T04:32:33;13.37;;;7.40;;
15317;SDS011;7759;52.528;13.346;2023-12-07T04:34:59;13.40;;;6.80;;
15317;SDS011;7759;52.528;13.346;2023-12-07T04:37:25;17.13;;;7.23;;
15317;SDS011;7759;52.528;13.346;2023-12-07T04:39:51;14.20;;;7.17;;
15317;SDS011;7759;52.528;13.346;2023-12-07T04:42:17;14.60;;;7.97;;
15317;SDS011;7759;52.528;13.346;2023-12-07T04:44:43;17.13;;;8.37;;
15317;SDS011;7759;52.528;13.346;2023-12-07T04:47:09;15.87;;;7.37;;
15317;SDS011;7759;52.528;13.346;2023-12-07T04:49:35;13.40;;;7.20;;
15317;SDS011;7759;52.528;13.346;2023-12-07T04:52:01;16.07;;;7.80;;
15317;SDS011;7759;52.528;13.346;2023-12-07T04:54:26;18.47;;;8.97;;
15317;SDS011;7759;52.528;13.346;2023-12-07T04:56:53;14.93;;;8.00;;
15317;SDS011;7759;52.528;13.346;2023-12-07T04:59:19;16.50;;;7.23;;
15317;SDS011;7759;52.528;13.346;2023-12-07T05:01:44;15.43;;;8.73;;
15317;SDS011;7759;52.528;13.346;2023-12-07T05:04:12;15.73;;;6.97;;
15317;SDS011;7759;52.528;13.346;2023-12-07T05:06:38;16.87;;;7.17;;
15317;SDS011;7759;52.528;13.346;2023-12-07T05:09:04;15.13;;;7.47;;
15317;SDS011;7759;52.528;13.346;2023-12-07T05:11:30;16.23;;;7.57;;
15317;SDS011;7759;52.528;13.346;2023-12-07T05:13:56;26.10;;;11.30;;
15317;SDS011;7759;52.528;13.346;2023-12-07T05:16:22;14.53;;;7.23;;
15317;SDS011;7759;52.528;13.346;2023-12-07T05:18:48;15.67;;;7.87;;
15317;SDS011;7759;52.528;13.346;2023-12-07T05:21:14;18.47;;;7.97;;
15317;SDS011;7759;52.528;13.346;2023-12-07T05:23:40;14.73;;;6.97;;
15317;SDS011;7759;52.528;13.346;2023-12-07T05:26:06;18.10;;;8.63;;
15317;SDS011;7759;52.528;13.346;2023-12-07T05:28:33;16.50;;;8.33;;
15317;SDS011;7759;52.528;13.346;2023-12-07T05:30:58;17.60;;;8.90;;
15317;SDS011;7759;52.528;13.346;2023-12-07T05:33:24;16.43;;;7.83;;
15317;SDS011;7759;52.528;13.346;2023-12-07T05:35:50;14.77;;;8.63;;
15317;SDS011;7759;52.528;13.346;2023-12-07T05:38:16;15.93;;;7.93;;
15317;SDS011;7759;52.528;13.346;2023-12-07T05:40:42;16.23;;;8.13;;
15317;SDS011;7759;52.528;13.346;2023-12-07T05:43:08;14.77;;;7.20;;
15317;SDS011;7759;52.528;13.346;2023-12-07T05:45:34;12.43;;;7.27;;
15317;SDS011;7759;52.528;13.346;2023-12-07T05:48:00;15.27;;;7.57;;
15317;SDS011;7759;52.528;13.346;2023-12-07T05:50:26;15.93;;;8.47;;
15317;SDS011;7759;52.528;13.346;2023-12-07T05:52:52;17.50;;;8.07;;
15317;SDS011;7759;52.528;13.346;2023-12-07T05:55:18;17.37;;;8.40;;
15317;SDS011;7759;52.528;13.346;2023-12-07T05:57:44;18.37;;;8.23;;
15317;SDS011;7759;52.528;13.346;2023-12-07T06:00:11;14.53;;;7.30;;
15317;SDS011;7759;52.528;13.346;2023-12-07T06:02:37;17.87;;;7.77;;
15317;SDS011;7759;52.528;13.346;2023-12-07T06:05:03;14.57;;;7.60;;
15317;SDS011;7759;52.528;13.346;2023-12-07T06:07:30;18.80;;;7.57;;
15317;SDS011;7759;52.528;13.346;2023-12-07T06:09:56;16.80;;;7.20;;
15317;SDS011;7759;52.528;13.346;2023-12-07T06:12:21;15.23;;;7.00;;
15317;SDS011;7759;52.528;13.346;2023-12-07T06:14:48;16.47;;;8.03;;
15317;SDS011;7759;52.528;13.346;2023-12-07T06:17:14;14.37;;;7.53;;
15317;SDS011;7759;52.528;13.346;2023-12-07T06:19:40;13.23;;;7.23;;
15317;SDS011;7759;52.528;13.346;2023-12-07T06:22:07;16.13;;;7.63;;
15317;SDS011;7759;52.528;13.346;2023-12-07T06:24:33;17.63;;;7.67;;
15317;SDS011;7759;52.528;13.346;2023-12-07T06:26:59;12.30;;;6.23;;
15317;SDS011;7759;52.528;13.346;2023-12-07T06:29:26;15.17;;;7.93;;
15317;SDS011;7759;52.528;13.346;2023-12-07T06:31:52;15.83;;;8.00;;
15317;SDS011;7759;52.528;13.346;2023-12-07T06:34:18;12.47;;;6.70;;
15317;SDS011;7759;52.528;13.346;2023-12-07T06:36:44;16.73;;;8.70;;
15317;SDS011;7759;52.528;13.346;2023-12-07T06:39:10;12.73;;;6.70;;
15317;SDS011;7759;52.528;13.346;2023-12-07T06:41:36;15.43;;;6.73;;
15317;SDS011;7759;52.528;13.346;2023-12-07T06:44:02;13.10;;;6.53;;
15317;SDS011;7759;52.528;13.346;2023-12-07T06:46:28;13.23;;;7.33;;
15317;SDS011;7759;52.528;13.346;2023-12-07T06:48:54;14.27;;;7.30;;
15317;SDS011;7759;52.528;13.346;2023-12-07T06:51:20;14.30;;;7.40;;
15317;SDS011;7759;52.528;13.346;2023-12-07T06:53:46;12.70;;;6.57;;
15317;SDS011;7759;52.528;13.346;2023-12-07T06:56:11;13.43;;;7.00;;
15317;SDS011;7759;52.528;13.346;2023-12-07T06:58:37;13.17;;;6.93;;
15317;SDS011;7759;52.528;13.346;2023-12-07T07:01:03;14.90;;;6.90;;
15317;SDS011;7759;52.528;13.346;2023-12-07T07:03:29;16.13;;;7.53;;
15317;SDS011;7759;52.528;13.346;2023-12-07T07:05:55;13.50;;;6.63;;
15317;SDS011;7759;52.528;13.346;2023-12-07T07:08:21;13.80;;;6.87;;
15317;SDS011;7759;52.528;13.346;2023-12-07T07:10:47;16.40;;;7.07;;
15317;SDS011;7759;52.528;13.346;2023-12-07T07:13:13;15.93;;;7.50;;
15317;SDS011;7759;52.528;13.346;2023-12-07T07:15:42;12.53;;;6.73;;
15317;SDS011;7759;52.528;13.346;2023-12-07T07:18:09;16.57;;;7.60;;
15317;SDS011;7759;52.528;13.346;2023-12-07T07:20:34;17.00;;;8.30;;
15317;SDS011;7759;52.528;13.346;2023-12-07T07:23:00;16.03;;;7.33;;
15317;SDS011;7759;52.528;13.346;2023-12-07T07:25:26;17.07;;;8.03;;
15317;SDS011;7759;52.528;13.346;2023-12-07T07:27:52;13.43;;;6.80;;
15317;SDS011;7759;52.528;13.346;2023-12-07T07:30:19;14.00;;;6.60;;
15317;SDS011;7759;52.528;13.346;2023-12-07T07:32:45;18.00;;;8.33;;
15317;SDS011;7759;52.528;13.346;2023-12-07T07:35:11;12.80;;;6.83;;
15317;SDS011;7759;52.528;13.346;2023-12-07T07:37:39;15.00;;;7.83;;
15317;SDS011;7759;52.528;13.346;2023-12-07T07:40:06;12.03;;;6.43;;
15317;SDS011;7759;52.528;13.346;2023-12-07T07:42:32;12.77;;;6.60;;
15317;SDS011;7759;52.528;13.346;2023-12-07T07:44:58;14.57;;;7.30;;
15317;SDS011;7759;52.528;13.346;2023-12-07T07:47:24;13.97;;;6.97;;
15317;SDS011;7759;52.528;13.346;2023-12-07T07:49:50;14.50;;;7.23;;
15317;SDS011;7759;52.528;13.346;2023-12-07T07:52:16;14.20;;;7.23;;
15317;SDS011;7759;52.528;13.346;2023-12-07T07:54:42;12.17;;;6.50;;
15317;SDS011;7759;52.528;13.346;2023-12-07T07:57:08;12.67;;;6.23;;
15317;SDS011;7759;52.528;13.346;2023-12-07T07:59:34;11.87;;;6.63;;
15317;SDS011;7759;52.528;13.346;2023-12-07T08:02:00;12.23;;;6.50;;
15317;SDS011;7759;52.528;13.346;2023-12-07T08:04:26;16.17;;;7.37;;
15317;SDS011;7759;52.528;13.346;2023-12-07T08:06:52;14.43;;;7.57;;
15317;SDS011;7759;52.528;13.346;2023-12-07T08:09:17;15.70;;;6.83;;
15317;SDS011;7759;52.528;13.346;2023-12-07T08:11:43;14.90;;;7.47;;
15317;SDS011;7759;52.528;13.346;2023-12-07T08:14:09;17.03;;;8.30;;
15317;SDS011;7759;52.528;13.346;2023-12-07T08:16:35;12.97;;;7.37;;
15317;SDS011;7759;52.528;13.346;2023-12-07T08:19:01;16.20;;;7.33;;
15317;SDS011;7759;52.528;13.346;2023-12-07T08:21:27;13.40;;;6.80;;
15317;SDS011;7759;52.528;13.346;2023-12-07T08:23:54;14.33;;;7.00;;
15317;SDS011;7759;52.528;13.346;2023-12-07T08:26:20;18.43;;;7.07;;
15317;SDS011;7759;52.528;13.346;2023-12-07T08:28:46;13.10;;;7.07;;
15317;SDS011;7759;52.528;13.346;2023-12-07T08:31:12;15.33;;;8.23;;
15317;SDS011;7759;52.528;13.346;2023-12-07T08:33:38;14.03;;;7.77;;
15317;SDS011;7759;52.528;13.346;2023-12-07T08:36:05;13.77;;;7.53;;
15317;SDS011;7759;52.528;13.346;2023-12-07T08:38:31;15.90;;;7.50;;
15317;SDS011;7759;52.528;13.346;2023-12-07T08:40:57;15.43;;;7.50;;
15317;SDS011;7759;52.528;13.346;2023-12-07T08:43:23;14.07;;;7.17;;
15317;SDS011;7759;52.528;13.346;2023-12-07T08:45:52;14.50;;;7.20;;
15317;SDS011;7759;52.528;13.346;2023-12-07T08:48:21;14.60;;;7.73;;
15317;SDS011;7759;52.528;13.346;2023-12-07T08:50:47;16.23;;;8.80;;
15317;SDS011;7759;52.528;13.346;2023-12-07T08:53:13;16.63;;;8.20;;
15317;SDS011;7759;52.528;13.346;2023-12-07T08:55:39;13.60;;;7.70;;
15317;SDS011;7759;52.528;13.346;2023-12-07T08:58:05;16.53;;;8.30;;
15317;SDS011;7759;52.528;13.346;2023-12-07T09:00:32;16.47;;;7.93;;
15317;SDS011;7759;52.528;13.346;2023-12-07T09:02:58;15.63;;;8.17;;
15317;SDS011;7759;52.528;13.346;2023-12-07T09:05:25;17.27;;;7.70;;
15317;SDS011;7759;52.528;13.346;2023-12-07T09:07:51;16.33;;;8.27;;
15317;SDS011;7759;52.528;13.346;2023-12-07T09:10:18;19.83;;;9.43;;
15317;SDS011;7759;52.528;13.346;2023-12-07T09:12:44;15.90;;;7.90;;
15317;SDS011;7759;52.528;13.346;2023-12-07T09:15:10;16.27;;;8.43;;
15317;SDS011;7759;52.528;13.346;2023-12-07T09:17:36;17.60;;;8.60;;
15317;SDS011;7759;52.528;13.346;2023-12-07T09:20:09;18.50;;;8.57;;
15317;SDS011;7759;52.528;13.346;2023-12-07T09:22:40;16.90;;;9.03;;
15317;SDS011;7759;52.528;13.346;2023-12-07T09:25:06;20.57;;;9.00;;
15317;SDS011;7759;52.528;13.346;2023-12-07T09:27:33;16.13;;;7.73;;
15317;SDS011;7759;52.528;13.346;2023-12-07T09:30:00;17.57;;;8.87;;
15317;SDS011;7759;52.528;13.346;2023-12-07T09:32:26;16.27;;;8.20;;
15317;SDS011;7759;52.528;13.346;2023-12-07T09:34:53;15.93;;;7.57;;
15317;SDS011;7759;52.528;13.346;2023-12-07T09:37:18;15.97;;;7.33;;
15317;SDS011;7759;52.528;13.346;2023-12-07T09:39:45;16.93;;;7.87;;
15317;SDS011;7759;52.528;13.346;2023-12-07T09:42:11;14.90;;;7.27;;
15317;SDS011;7759;52.528;13.346;2023-12-07T09:44:37;15.60;;;7.37;;
15317;SDS011;7759;52.528;13.346;2023-12-07T09:47:03;16.43;;;7.80;;
15317;SDS011;7759;52.528;13.346;2023-12-07T09:49:29;17.63;;;8.40;;
15317;SDS011;7759;52.528;13.346;2023-12-07T09:51:55;18.00;;;8.80;;
15317;SDS011;7759;52.528;13.346;2023-12-07T09:54:22;18.03;;;8.13;;
15317;SDS011;7759;52.528;13.346;2023-12-07T09:56:50;16.10;;;7.23;;
15317;SDS011;7759;52.528;13.346;2023-12-07T09:59:18;17.63;;;7.80;;
15317;SDS011;7759;52.528;13.346;2023-12-07T10:01:44;13.80;;;6.47;;
15317;SDS011;7759;52.528;13.346;2023-12-07T10:04:19;17.47;;;8.90;;
15317;SDS011;7759;52.528;13.346;2023-12-07T10:06:47;16.00;;;7.47;;
15317;SDS011;7759;52.528;13.346;2023-12-07T10:09:14;14.43;;;6.63;;
15317;SDS011;7759;52.528;13.346;2023-12-07T10:11:40;16.90;;;8.30;;
15317;SDS011;7759;52.528;13.346;2023-12-07T10:14:06;15.77;;;7.57;;
15317;SDS011;7759;52.528;13.346;2023-12-07T10:16:33;16.03;;;7.17;;
15317;SDS011;7759;52.528;13.346;2023-12-07T10:19:14;16.70;;;7.43;;
15317;SDS011;7759;52.528;13.346;2023-12-07T10:21:42;14.27;;;7.50;;
15317;SDS011;7759;52.528;13.346;2023-12-07T10:24:09;16.70;;;7.47;;
15317;SDS011;7759;52.528;13.346;2023-12-07T10:26:35;16.90;;;7.90;;
15317;SDS011;7759;52.528;13.346;2023-12-07T10:29:01;14.60;;;6.93;;
15317;SDS011;7759;52.528;13.346;2023-12-07T10:31:27;14.43;;;7.60;;
15317;SDS011;7759;52.528;13.346;2023-12-07T10:33:55;15.43;;;7.73;;
15317;SDS011;7759;52.528;13.346;2023-12-07T10:36:21;18.10;;;8.73;;
15317;SDS011;7759;52.528;13.346;2023-12-07T10:38:48;14.30;;;7.90;;
15317;SDS011;7759;52.528;13.346;2023-12-07T10:41:16;16.43;;;8.03;;
15317;SDS011;7759;52.528;13.346;2023-12-07T10:43:43;15.50;;;7.63;;
15317;SDS011;7759;52.528;13.346;2023-12-07T10:46:12;15.67;;;8.27;;
15317;SDS011;7759;52.528;13.346;2023-12-07T10:48:41;15.30;;;8.23;;
15317;SDS011;7759;52.528;13.346;2023-12-07T10:51:09;16.50;;;7.60;;
15317;SDS011;7759;52.528;13.346;2023-12-07T10:53:42;15.97;;;7.47;;
15317;SDS011;7759;52.528;13.346;2023-12-07T10:56:16;14.13;;;6.87;;
15317;SDS011;7759;52.528;13.346;2023-12-07T10:58:43;14.23;;;7.53;;
15317;SDS011;7759;52.528;13.346;2023-12-07T11:01:09;14.03;;;7.10;;
15317;SDS011;7759;52.528;13.346;2023-12-07T11:03:37;12.10;;;6.93;;
15317;SDS011;7759;52.528;13.346;2023-12-07T11:06:06;13.70;;;6.30;;
15317;SDS011;7759;52.528;13.346;2023-12-07T11:08:35;11.33;;;6.40;;
15317;SDS011;7759;52.528;13.346;2023-12-07T11:11:08;14.50;;;6.87;;
15317;SDS011;7759;52.528;13.346;2023-12-07T11:13:36;12.43;;;6.03;;
15317;SDS011;7759;52.528;13.346;2023-12-07T11:16:02;14.40;;;7.43;;
15317;SDS011;7759;52.528;13.346;2023-12-07T11:18:29;12.87;;;7.13;;
15317;SDS011;7759;52.528;13.346;2023-12-07T11:20:55;14.63;;;7.40;;
15317;SDS011;7759;52.528;13.346;2023-12-07T11:23:21;13.57;;;7.60;;
15317;SDS011;7759;52.528;13.346;2023-12-07T11:25:48;13.10;;;6.97;;
15317;SDS011;7759;52.528;13.346;2023-12-07T11:28:15;14.73;;;7.67;;
15317;SDS011;7759;52.528;13.346;2023-12-07T11:30:42;10.77;;;6.27;;
15317;SDS011;7759;52.528;13.346;2023-12-07T11:33:08;15.50;;;7.23;;
15317;SDS011;7759;52.528;13.346;2023-12-07T11:36:03;12.43;;;7.47;;
15317;SDS011;7759;52.528;13.346;2023-12-07T11:38:20;13.93;;;6.87;;
15317;SDS011;7759;52.528;13.346;2023-12-07T11:40:46;16.93;;;8.70;;
15317;SDS011;7759;52.528;13.346;2023-12-07T11:43:16;16.03;;;7.77;;
15317;SDS011;7759;52.528;13.346;2023-12-07T11:45:48;14.20;;;7.87;;
15317;SDS011;7759;52.528;13.346;2023-12-07T11:48:15;14.90;;;7.37;;
15317;SDS011;7759;52.528;13.346;2023-12-07T11:50:56;14.87;;;7.37;;
15317;SDS011;7759;52.528;13.346;2023-12-07T11:53:22;19.97;;;9.13;;
15317;SDS011;7759;52.528;13.346;2023-12-07T11:55:49;15.63;;;7.67;;
15317;SDS011;7759;52.528;13.346;2023-12-07T11:58:15;15.73;;;8.07;;
15317;SDS011;7759;52.528;13.346;2023-12-07T12:00:41;17.47;;;8.73;;
15317;SDS011;7759;52.528;13.346;2023-12-07T12:03:07;15.53;;;7.33;;
15317;SDS011;7759;52.528;13.346;2023-12-07T12:05:33;14.70;;;7.73;;
15317;SDS011;7759;52.528;13.346;2023-12-07T12:07:58;16.23;;;7.33;;
15317;SDS011;7759;52.528;13.346;2023-12-07T12:10:24;14.83;;;7.13;;
15317;SDS011;7759;52.528;13.346;2023-12-07T12:12:53;15.90;;;8.53;;
15317;SDS011;7759;52.528;13.346;2023-12-07T12:15:18;14.80;;;7.13;;
15317;SDS011;7759;52.528;13.346;2023-12-07T12:17:45;11.13;;;5.80;;
15317;SDS011;7759;52.528;13.346;2023-12-07T12:20:11;11.30;;;5.93;;
15317;SDS011;7759;52.528;13.346;2023-12-07T12:22:42;11.10;;;5.90;;
15317;SDS011;7759;52.528;13.346;2023-12-07T12:25:08;15.17;;;7.33;;
15317;SDS011;7759;52.528;13.346;2023-12-07T12:27:34;12.20;;;6.50;;
15317;SDS011;7759;52.528;13.346;2023-12-07T12:30:00;13.50;;;7.03;;
15317;SDS011;7759;52.528;13.346;2023-12-07T12:32:26;15.27;;;7.67;;
15317;SDS011;7759;52.528;13.346;2023-12-07T12:34:52;13.00;;;6.43;;
15317;SDS011;7759;52.528;13.346;2023-12-07T12:37:18;12.27;;;6.60;;
15317;SDS011;7759;52.528;13.346;2023-12-07T12:39:44;12.03;;;6.00;;
15317;SDS011;7759;52.528;13.346;2023-12-07T12:42:10;13.77;;;7.00;;
15317;SDS011;7759;52.528;13.346;2023-12-07T12:44:37;15.50;;;7.70;;
15317;SDS011;7759;52.528;13.346;2023-12-07T12:47:06;18.13;;;8.77;;
15317;SDS011;7759;52.528;13.346;2023-12-07T12:49:36;13.70;;;7.33;;
15317;SDS011;7759;52.528;13.346;2023-12-07T12:52:04;14.20;;;7.53;;
15317;SDS011;7759;52.528;13.346;2023-12-07T12:54:30;17.40;;;7.40;;
15317;SDS011;7759;52.528;13.346;2023-12-07T12:57:00;22.30;;;10.60;;
15317;SDS011;7759;52.528;13.346;2023-12-07T12:59:26;21.40;;;10.40;;
15317;SDS011;7759;52.528;13.346;2023-12-07T13:01:52;22.40;;;10.10;;
15317;SDS011;7759;52.528;13.346;2023-12-07T13:04:18;19.00;;;9.03;;
15317;SDS011;7759;52.528;13.346;2023-12-07T13:06:44;22.33;;;8.33;;
15317;SDS011;7759;52.528;13.346;2023-12-07T13:09:10;18.10;;;8.63;;
15317;SDS011;7759;52.528;13.346;2023-12-07T13:11:36;20.73;;;9.60;;
15317;SDS011;7759;52.528;13.346;2023-12-07T13:14:02;15.43;;;8.30;;
15317;SDS011;7759;52.528;13.346;2023-12-07T13:16:31;17.17;;;8.57;;
15317;SDS011;7759;52.528;13.346;2023-12-07T13:18:57;17.63;;;8.43;;
15317;SDS011;7759;52.528;13.346;2023-12-07T13:21:23;21.57;;;9.70;;
15317;SDS011;7759;52.528;13.346;2023-12-07T13:23:49;13.50;;;7.20;;
15317;SDS011;7759;52.528;13.346;2023-12-07T13:26:15;17.60;;;9.13;;
15317;SDS011;7759;52.528;13.346;2023-12-07T13:28:41;19.37;;;9.17;;
15317;SDS011;7759;52.528;13.346;2023-12-07T13:31:07;14.47;;;7.73;;
15317;SDS011;7759;52.528;13.346;2023-12-07T13:33:33;17.23;;;7.73;;
15317;SDS011;7759;52.528;13.346;2023-12-07T13:35:59;20.23;;;9.03;;
15317;SDS011;7759;52.528;13.346;2023-12-07T13:38:26;17.77;;;8.17;;
15317;SDS011;7759;52.528;13.346;2023-12-07T13:40:54;14.60;;;7.40;;
15317;SDS011;7759;52.528;13.346;2023-12-07T13:43:21;16.43;;;8.70;;
15317;SDS011;7759;52.528;13.346;2023-12-07T13:45:49;17.97;;;8.03;;
15317;SDS011;7759;52.528;13.346;2023-12-07T13:48:15;18.03;;;9.33;;
15317;SDS011;7759;52.528;13.346;2023-12-07T13:50:41;19.60;;;9.50;;
15317;SDS011;7759;52.528;13.346;2023-12-07T13:53:07;18.30;;;8.53;;
15317;SDS011;7759;52.528;13.346;2023-12-07T13:55:37;16.57;;;8.37;;
15317;SDS011;7759;52.528;13.346;2023-12-07T13:58:04;13.63;;;6.90;;
15317;SDS011;7759;52.528;13.346;2023-12-07T14:00:31;14.70;;;6.97;;
15317;SDS011;7759;52.528;13.346;2023-12-07T14:02:57;14.23;;;6.90;;
15317;SDS011;7759;52.528;13.346;2023-12-07T14:05:23;14.20;;;6.90;;
15317;SDS011;7759;52.528;13.346;2023-12-07T14:07:49;20.90;;;9.97;;
15317;SDS011;7759;52.528;13.346;2023-12-07T14:10:15;16.67;;;8.13;;
15317;SDS011;7759;52.528;13.346;2023-12-07T14:12:41;18.70;;;8.73;;
15317;SDS011;7759;52.528;13.346;2023-12-07T14:15:07;14.67;;;6.67;;
15317;SDS011;7759;52.528;13.346;2023-12-07T14:17:34;15.63;;;7.37;;
15317;SDS011;7759;52.528;13.346;2023-12-07T14:20:04;19.03;;;8.63;;
15317;SDS011;7759;52.528;13.346;2023-12-07T14:22:31;20.03;;;9.63;;
15317;SDS011;7759;52.528;13.346;2023-12-07T14:24:57;21.07;;;10.23;;
15317;SDS011;7759;52.528;13.346;2023-12-07T14:27:23;23.77;;;10.07;;
15317;SDS011;7759;52.528;13.346;2023-12-07T14:29:50;19.57;;;8.57;;
15317;SDS011;7759;52.528;13.346;2023-12-07T14:32:15;19.67;;;9.47;;
15317;SDS011;7759;52.528;13.346;2023-12-07T14:34:42;19.13;;;7.50;;